Time;durP1;ratioP1;P1;durP2;ratioP2;P2;SDS_P1;SDS_P2;PMS_P1;PMS_P2;Temp;Humidity;BMP_temperature;BMP_pressure;BME280_temperature;BME280_humidity;BME280_pressure;Samples;Min_cycle;Max_cycle;Signal;HPM_P1;HPM_P2
2021/12/02 00:01:32;;;;;;;2.10;1.10;;;22.90;40.80;;;;;;5084320;27;44059;-62
2021/12/02 00:03:59;;;;;;;1.77;1.02;;;22.80;41.00;;;;;;5084853;27;43943;-62
2021/12/02 00:06:27;;;;;;;2.63;1.40;;;22.80;41.00;;;;;;5078704;27;43589;-61
2021/12/02 00:08:54;;;;;;;1.52;1.00;;;22.80;40.90;;;;;;5077536;27;43519;-62
2021/12/02 00:11:21;;;;;;;1.95;1.27;;;22.80;41.00;;;;;;5084782;27;44227;-61
2021/12/02 00:16:27;;;;;;;2.17;1.20;;;22.80;41.00;;;;;;5084201;27;43486;-61
2021/12/02 00:21:51;;;;;;;2.63;1.33;;;22.80;40.90;;;;;;5083114;27;44166;-61
2021/12/02 00:24:20;;;;;;;1.55;1.08;;;22.80;41.10;;;;;;5084709;27;44165;-62
2021/12/02 00:26:49;;;;;;;2.38;1.20;;;22.80;41.20;;;;;;5083278;27;43486;-61
2021/12/02 00:29:20;;;;;;;1.23;1.05;;;22.80;41.10;;;;;;5065583;28;43512;-62
2021/12/02 00:31:50;;;;;;;1.35;0.93;;;22.80;41.20;;;;;;5071120;27;45222;-62
2021/12/02 00:34:19;;;;;;;1.63;1.00;;;22.80;41.20;;;;;;5066747;28;44168;-60
2021/12/02 00:36:46;;;;;;;1.10;1.00;;;22.70;41.20;;;;;;5083977;27;43516;-62
2021/12/02 00:39:17;;;;;;;1.67;1.00;;;22.70;41.20;;;;;;5084380;27;43515;-61
2021/12/02 00:41:48;;;;;;;1.92;1.15;;;22.80;41.20;;;;;;5059467;28;45507;-61
2021/12/02 00:44:18;;;;;;;1.50;1.20;;;22.70;41.20;;;;;;5076146;27;43831;-60
2021/12/02 00:46:46;;;;;;;2.35;1.30;;;22.70;41.30;;;;;;5084055;27;43529;-61
2021/12/02 00:49:17;;;;;;;1.73;0.98;;;22.70;41.30;;;;;;5084718;27;43942;-61
2021/12/02 00:51:45;;;;;;;;;;;22.70;41.40;;;;;;5084785;27;43988;-61
2021/12/02 00:54:13;;;;;;;1.95;1.08;;;22.70;41.40;;;;;;5082981;27;43781;-61
2021/12/02 00:56:41;;;;;;;1.67;1.20;;;22.60;41.40;;;;;;5084110;27;43534;-61
2021/12/02 00:59:09;;;;;;;1.50;0.75;;;22.60;41.40;;;;;;5076198;27;43495;-61
2021/12/02 01:01:38;;;;;;;1.52;1.00;;;22.70;41.50;;;;;;5077768;27;45019;-61
2021/12/02 01:04:10;;;;;;;1.70;0.77;;;22.60;41.40;;;;;;5077426;27;43397;-62
2021/12/02 01:06:41;;;;;;;2.42;1.00;;;22.70;41.50;;;;;;5081471;27;43456;-61
2021/12/02 01:09:10;;;;;;;1.20;1.10;;;22.60;41.50;;;;;;5048748;28;43594;-60
2021/12/02 01:11:39;;;;;;;2.58;1.00;;;22.60;41.60;;;;;;5073670;27;44782;-62
2021/12/02 01:14:08;;;;;;;1.15;0.82;;;22.60;41.60;;;;;;5082089;27;43467;-61
2021/12/02 01:16:35;;;;;;;0.85;0.85;;;22.60;41.60;;;;;;5083355;27;43533;-61
2021/12/02 01:19:06;;;;;;;1.33;1.15;;;22.60;41.50;;;;;;5084223;27;43526;-61
2021/12/02 01:21:37;;;;;;;1.98;1.20;;;22.60;41.50;;;;;;5083646;27;44131;-61
2021/12/02 01:24:05;;;;;;;;;;;22.60;41.50;;;;;;5068235;28;45408;-61
2021/12/02 01:26:35;;;;;;;1.30;1.00;;;22.50;41.40;;;;;;5082254;27;43510;-61
2021/12/02 01:29:04;;;;;;;1.38;0.70;;;22.50;41.50;;;;;;5052694;28;43575;-60
2021/12/02 01:31:34;;;;;;;0.90;0.70;;;22.50;41.50;;;;;;5074604;27;45020;-62
2021/12/02 01:34:07;;;;;;;1.58;0.82;;;22.50;41.50;;;;;;5083542;27;43610;-61
2021/12/02 01:36:41;;;;;;;1.65;0.90;;;22.50;41.50;;;;;;5083968;27;43435;-61
2021/12/02 01:39:09;;;;;;;1.40;1.00;;;22.40;41.40;;;;;;5082630;27;43512;-62
2021/12/02 01:42:07;;;;;;;1.88;0.82;;;22.40;41.50;;;;;;5082079;27;44892;-61
2021/12/02 01:44:41;;;;;;;1.65;0.80;;;22.40;41.50;;;;;;5061269;27;43810;-62
2021/12/02 01:47:14;;;;;;;1.15;0.60;;;22.40;41.60;;;;;;5083798;27;43506;-61
2021/12/02 01:49:43;;;;;;;1.45;1.00;;;22.40;41.70;;;;;;5083398;27;43565;-62
2021/12/02 01:52:11;;;;;;;1.77;0.82;;;22.40;41.70;;;;;;5084016;27;43994;-61
2021/12/02 01:54:43;;;;;;;0.95;0.75;;;22.30;41.60;;;;;;5083422;27;44182;-61
2021/12/02 01:57:27;;;;;;;1.67;0.85;;;22.30;41.70;;;;;;5083488;27;43476;-60
2021/12/02 02:00:14;;;;;;;0.88;0.70;;;22.40;41.70;;;;;;5083155;27;43562;-60
2021/12/02 02:02:42;;;;;;;0.80;0.60;;;22.30;41.60;;;;;;5083274;27;45002;-61
2021/12/02 02:05:13;;;;;;;1.70;0.70;;;22.30;41.70;;;;;;5083032;28;44259;-60
2021/12/02 02:07:53;;;;;;;0.77;0.65;;;22.30;41.80;;;;;;5080655;27;43501;-62
2021/12/02 02:10:21;;;;;;;1.33;0.73;;;22.30;41.70;;;;;;5072307;27;43574;-60
2021/12/02 02:12:48;;;;;;;1.23;0.70;;;22.30;41.70;;;;;;5082882;27;44102;-60
2021/12/02 02:15:16;;;;;;;0.80;0.70;;;22.30;41.70;;;;;;5072044;27;43537;-61
2021/12/02 02:18:08;;;;;;;0.70;0.60;;;22.20;41.70;;;;;;5069008;27;43381;-61
2021/12/02 02:20:47;;;;;;;0.98;0.65;;;22.30;41.70;;;;;;5069398;28;43483;-61
2021/12/02 02:23:14;;;;;;;2.50;0.95;;;22.20;41.80;;;;;;5086674;27;44987;-62
2021/12/02 02:25:44;;;;;;;1.50;0.70;;;22.20;41.80;;;;;;5068191;27;43634;-62
2021/12/02 02:28:13;;;;;;;1.30;0.80;;;22.20;41.90;;;;;;5086586;27;43417;-62
2021/12/02 02:30:41;;;;;;;1.17;0.70;;;22.20;42.00;;;;;;5086859;27;43478;-61
2021/12/02 02:33:12;;;;;;;1.05;0.70;;;22.20;42.00;;;;;;5086303;27;43803;-61
2021/12/02 02:35:42;;;;;;;1.52;0.60;;;22.20;42.00;;;;;;5084908;27;43968;-61
2021/12/02 02:38:10;;;;;;;0.82;0.60;;;22.10;42.00;;;;;;5086137;27;43487;-61
2021/12/02 02:40:40;;;;;;;1.92;0.90;;;22.20;42.10;;;;;;5086794;27;43518;-61
2021/12/02 02:47:11;;;;;;;0.98;0.80;;;22.10;42.10;;;;;;5084849;27;43495;-62
2021/12/02 02:49:38;;;;;;;1.52;0.77;;;22.10;42.10;;;;;;5086022;27;43472;-61
2021/12/02 02:52:06;;;;;;;0.60;0.60;;;22.10;42.40;;;;;;5086786;27;43640;-61
2021/12/02 02:54:33;;;;;;;1.27;0.70;;;22.10;42.20;;;;;;5085205;27;44050;-62
2021/12/02 02:57:07;;;;;;;1.30;0.63;;;22.10;42.20;;;;;;5085605;27;43537;-61
2021/12/02 03:07:19;;;;;;;1.63;0.80;;;22.00;42.20;;;;;;5086301;27;43445;-61
2021/12/02 03:12:31;;;;;;;1.05;0.70;;;22.00;42.30;;;;;;5086397;27;43541;-61
2021/12/02 03:17:30;;;;;;;2.05;0.80;;;21.90;42.30;;;;;;5086016;27;43590;-62
2021/12/02 03:19:58;;;;;;;1.20;0.70;;;21.90;42.30;;;;;;5086155;27;43469;-62
2021/12/02 03:22:26;;;;;;;1.13;0.60;;;21.90;42.30;;;;;;5086370;27;43616;-61
2021/12/02 03:24:53;;;;;;;0.63;0.50;;;21.90;42.30;;;;;;5057769;28;44961;-60
2021/12/02 03:27:21;;;;;;;1.30;0.70;;;21.90;42.30;;;;;;5079102;27;43902;-61
2021/12/02 03:29:48;;;;;;;1.25;0.70;;;21.90;42.30;;;;;;5081161;27;43451;-60
2021/12/02 03:32:15;;;;;;;0.82;0.60;;;21.90;42.30;;;;;;5085347;27;43585;-62
2021/12/02 03:34:43;;;;;;;0.98;0.80;;;21.90;42.30;;;;;;5081012;27;44938;-60
2021/12/02 03:37:11;;;;;;;0.63;0.43;;;21.90;42.40;;;;;;5065445;27;43910;-61
2021/12/02 03:39:38;;;;;;;1.10;0.70;;;21.90;42.50;;;;;;5090631;27;43410;-61
2021/12/02 03:42:06;;;;;;;1.23;0.52;;;21.90;42.50;;;;;;5087212;27;43657;-63
2021/12/02 03:44:33;;;;;;;1.08;0.75;;;21.90;42.50;;;;;;5076744;27;45075;-60
2021/12/02 03:47:02;;;;;;;0.68;0.60;;;21.90;42.50;;;;;;5085352;27;43950;-61
2021/12/02 03:49:29;;;;;;;2.10;0.63;;;21.90;42.50;;;;;;5072578;27;43420;-62
2021/12/02 03:51:57;;;;;;;1.48;0.73;;;21.80;42.50;;;;;;5084960;27;43594;-60
2021/12/02 03:54:27;;;;;;;1.73;0.60;;;21.80;42.50;;;;;;5066722;28;43967;-62
2021/12/02 03:56:54;;;;;;;0.90;0.60;;;21.80;42.50;;;;;;5084537;27;43470;-61
2021/12/02 03:59:21;;;;;;;0.57;0.57;;;21.80;42.50;;;;;;5084866;27;43508;-61
2021/12/02 04:01:49;;;;;;;0.98;0.50;;;21.80;42.50;;;;;;5067464;27;44220;-60
2021/12/02 04:04:16;;;;;;;0.70;0.50;;;21.80;42.50;;;;;;5084391;27;44231;-61
2021/12/02 04:06:43;;;;;;;1.55;0.55;;;21.80;42.40;;;;;;5063124;28;44297;-62
2021/12/02 04:09:21;;;;;;;0.90;0.50;;;21.80;42.40;;;;;;5079254;27;43518;-61
2021/12/02 04:16:53;;;;;;;0.60;0.50;;;21.80;42.60;;;;;;5067096;27;43406;-61
2021/12/02 04:19:22;;;;;;;0.75;0.73;;;21.70;42.50;;;;;;5069251;27;43483;-61
2021/12/02 04:21:50;;;;;;;1.10;0.80;;;21.70;42.60;;;;;;5078592;27;43652;-61
2021/12/02 04:24:21;;;;;;;0.50;0.40;;;21.70;42.60;;;;;;5084781;27;43681;-62
2021/12/02 04:26:49;;;;;;;0.40;0.40;;;21.70;42.60;;;;;;5084695;27;43537;-61
2021/12/02 04:29:17;;;;;;;0.73;0.50;;;21.70;42.60;;;;;;5085144;27;43481;-62
2021/12/02 04:31:47;;;;;;;1.30;0.50;;;21.70;42.60;;;;;;5072000;27;43539;-61
2021/12/02 04:34:16;;;;;;;0.60;0.45;;;21.60;42.60;;;;;;5084903;27;43581;-61
2021/12/02 04:36:44;;;;;;;0.57;0.47;;;21.60;43.30;;;;;;5083432;27;44016;-61
2021/12/02 04:39:11;;;;;;;1.27;0.55;;;21.60;42.60;;;;;;5084735;27;43411;-61
2021/12/02 04:41:39;;;;;;;0.30;0.30;;;21.60;42.60;;;;;;5085930;27;43991;-60
2021/12/02 04:44:06;;;;;;;0.57;0.50;;;21.60;42.60;;;;;;5082294;27;44787;-62
2021/12/02 04:46:34;;;;;;;1.58;0.60;;;21.60;42.70;;;;;;5081914;28;43797;-60
2021/12/02 04:49:02;;;;;;;0.50;0.50;;;21.60;42.70;;;;;;5084994;27;43421;-61
2021/12/02 04:51:32;;;;;;;0.40;0.40;;;21.50;42.70;;;;;;5084319;27;43463;-61
2021/12/02 04:53:59;;;;;;;1.15;0.50;;;21.50;42.70;;;;;;5074345;27;44992;-61
2021/12/02 04:56:26;;;;;;;0.45;0.32;;;21.50;42.60;;;;;;5079638;27;43955;-62
2021/12/02 04:58:54;;;;;;;0.70;0.50;;;21.50;42.70;;;;;;5084362;27;43419;-62
2021/12/02 05:01:21;;;;;;;1.50;0.60;;;21.60;42.70;;;;;;5084791;27;43485;-61
2021/12/02 05:03:48;;;;;;;0.35;0.35;;;21.50;42.60;;;;;;5083080;27;44883;-61
2021/12/02 05:06:16;;;;;;;0.55;0.43;;;21.50;42.70;;;;;;5082829;27;43488;-61
2021/12/02 05:08:43;;;;;;;0.80;0.60;;;21.50;42.70;;;;;;5083865;27;43439;-61
2021/12/02 05:11:10;;;;;;;0.68;0.55;;;21.50;42.70;;;;;;5084571;27;43449;-62
2021/12/02 05:13:38;;;;;;;0.60;0.40;;;21.50;42.80;;;;;;5083944;27;44058;-61
2021/12/02 05:16:05;;;;;;;0.40;0.40;;;21.50;42.80;;;;;;5081361;27;43761;-60
2021/12/02 05:18:34;;;;;;;0.60;0.47;;;21.40;42.60;;;;;;5083398;27;43449;-62
2021/12/02 05:21:01;;;;;;;1.30;0.45;;;21.50;42.70;;;;;;5073573;27;43402;-61
2021/12/02 05:23:28;;;;;;;0.40;0.40;;;21.40;42.60;;;;;;5066344;27;43707;-61
2021/12/02 05:25:56;;;;;;;0.50;0.50;;;21.40;42.70;;;;;;5066317;27;43619;-62
2021/12/02 05:28:23;;;;;;;0.40;0.40;;;21.40;42.70;;;;;;5060314;27;43423;-61
2021/12/02 05:30:51;;;;;;;0.43;0.43;;;21.40;42.80;;;;;;5065603;27;43566;-61
2021/12/02 05:33:18;;;;;;;0.55;0.50;;;21.40;42.80;;;;;;5065638;27;46066;-61
2021/12/02 05:35:47;;;;;;;0.80;0.60;;;21.40;42.80;;;;;;5066163;27;43432;-61
2021/12/02 05:38:14;;;;;;;1.00;0.70;;;21.40;42.80;;;;;;5084072;27;43417;-61
2021/12/02 05:40:42;;;;;;;0.40;0.40;;;21.30;42.80;;;;;;5083666;27;43444;-62
2021/12/02 05:43:10;;;;;;;0.90;0.57;;;21.30;42.80;;;;;;5088268;27;44571;-60
2021/12/02 05:45:37;;;;;;;0.43;0.22;;;21.30;42.80;;;;;;5083942;27;43774;-62
2021/12/02 05:48:04;;;;;;;0.55;0.55;;;21.30;42.80;;;;;;5084014;27;43394;-61
2021/12/02 05:50:32;;;;;;;0.90;0.43;;;21.30;42.80;;;;;;5081991;27;43587;-61
2021/12/02 05:52:59;;;;;;;0.47;0.38;;;21.30;42.80;;;;;;5078300;27;44215;-62
2021/12/02 05:55:27;;;;;;;0.45;0.30;;;21.30;42.90;;;;;;5081798;27;44095;-61
2021/12/02 05:57:54;;;;;;;0.32;0.28;;;21.20;42.90;;;;;;5086104;27;43394;-61
2021/12/02 06:00:21;;;;;;;0.70;0.50;;;21.30;43.00;;;;;;5087608;27;43544;-62
2021/12/02 06:02:48;;;;;;;0.32;0.32;;;21.30;43.00;;;;;;5068601;28;43894;-63
2021/12/02 06:05:19;;;;;;;0.40;0.40;;;21.30;42.90;;;;;;5086537;27;43430;-61
2021/12/02 06:07:50;;;;;;;0.40;0.40;;;21.30;42.90;;;;;;5085615;27;44110;-61
2021/12/02 06:10:17;;;;;;;0.82;0.50;;;21.30;42.90;;;;;;5087029;27;43467;-61
2021/12/02 06:12:45;;;;;;;0.63;0.40;;;21.30;42.90;;;;;;5086443;27;45182;-62
2021/12/02 06:15:13;;;;;;;0.30;0.30;;;21.20;42.90;;;;;;5075348;27;43564;-62
2021/12/02 06:17:42;;;;;;;0.47;0.35;;;21.20;42.90;;;;;;5072598;27;43521;-62
2021/12/02 06:20:13;;;;;;;0.57;0.57;;;21.20;42.90;;;;;;5083232;27;43491;-61
2021/12/02 06:22:40;;;;;;;0.77;0.50;;;21.20;43.00;;;;;;5086499;27;44207;-62
2021/12/02 06:27:47;;;;;;;1.08;0.50;;;21.10;42.90;;;;;;5086596;27;43463;-63
2021/12/02 06:30:19;;;;;;;1.38;0.40;;;21.20;43.00;;;;;;5086645;27;44172;-62
2021/12/02 06:32:46;;;;;;;0.45;0.45;;;21.20;43.00;;;;;;5086405;27;43785;-62
2021/12/02 06:35:14;;;;;;;0.98;0.50;;;21.20;43.00;;;;;;5084876;27;43891;-61
2021/12/02 06:37:43;;;;;;;0.50;0.40;;;21.10;43.00;;;;;;5061558;28;43398;-62
2021/12/02 06:40:10;;;;;;;1.30;0.68;;;21.20;43.10;;;;;;5082780;27;43523;-60
2021/12/02 06:42:37;;;;;;;0.55;0.40;;;21.10;42.90;;;;;;5087975;27;44340;-62
2021/12/02 06:45:05;;;;;;;0.88;0.50;;;21.10;43.00;;;;;;5084264;27;43630;-62
2021/12/02 06:47:40;;;;;;;0.40;0.40;;;21.10;43.00;;;;;;5086191;27;43516;-62
2021/12/02 06:50:16;;;;;;;0.40;0.40;;;21.10;43.00;;;;;;5086604;27;43553;-62
2021/12/02 06:52:45;;;;;;;0.30;0.30;;;21.10;43.00;;;;;;5086345;27;45162;-60
2021/12/02 06:55:13;;;;;;;0.20;0.20;;;21.10;42.90;;;;;;5085467;27;43611;-61
2021/12/02 06:57:41;;;;;;;1.05;0.57;;;21.10;43.00;;;;;;5085928;27;43473;-62
2021/12/02 07:00:11;;;;;;;0.40;0.40;;;21.10;43.00;;;;;;5086270;27;43538;-62
2021/12/02 07:02:39;;;;;;;0.90;0.50;;;21.10;42.90;;;;;;5084932;27;44120;-61
2021/12/02 07:05:10;;;;;;;1.85;0.60;;;21.10;42.90;;;;;;5081647;27;43430;-62
2021/12/02 07:07:38;;;;;;;0.50;0.50;;;21.10;42.90;;;;;;5085633;27;43578;-62
2021/12/02 07:10:11;;;;;;;0.40;0.40;;;21.10;42.90;;;;;;5085963;27;43515;-61
2021/12/02 07:12:41;;;;;;;0.52;0.40;;;21.20;42.90;;;;;;5067404;27;44181;-61
2021/12/02 07:15:17;;;;;;;0.40;0.40;;;21.20;42.90;;;;;;5083432;27;44207;-62
2021/12/02 07:17:46;;;;;;;0.47;0.40;;;21.20;42.90;;;;;;5058663;28;43494;-60
2021/12/02 07:20:14;;;;;;;0.40;0.40;;;21.20;42.90;;;;;;5082665;27;43523;-61
2021/12/02 07:22:41;;;;;;;0.30;0.30;;;21.20;42.90;;;;;;5083302;27;43899;-62
2021/12/02 07:25:09;;;;;;;1.35;0.43;;;21.10;42.90;;;;;;5074762;27;43415;-62
2021/12/02 07:27:37;;;;;;;0.43;0.40;;;21.20;42.90;;;;;;5085441;27;43439;-61
2021/12/02 07:30:06;;;;;;;0.68;0.40;;;21.20;42.90;;;;;;5079258;27;43527;-61
2021/12/02 07:32:41;;;;;;;0.55;0.47;;;21.20;42.90;;;;;;5084580;27;44828;-60
2021/12/02 07:35:16;;;;;;;0.45;0.45;;;21.20;42.90;;;;;;5082525;27;43474;-62
2021/12/02 07:37:47;;;;;;;0.52;0.50;;;21.20;43.00;;;;;;5089037;27;43451;-61
2021/12/02 07:40:17;;;;;;;0.52;0.50;;;21.20;42.90;;;;;;5082201;27;43498;-62
2021/12/02 07:42:46;;;;;;;0.70;0.52;;;21.10;42.90;;;;;;5088053;27;45161;-61
2021/12/02 07:45:15;;;;;;;0.80;0.50;;;21.10;42.90;;;;;;5085007;27;43548;-62
2021/12/02 07:47:43;;;;;;;0.60;0.40;;;21.10;43.00;;;;;;5085107;27;43399;-62
2021/12/02 07:50:13;;;;;;;0.43;0.40;;;21.10;42.90;;;;;;5053742;27;43610;-61
2021/12/02 07:52:46;;;;;;;0.40;0.37;;;21.10;43.00;;;;;;5085258;27;43854;-62
2021/12/02 07:55:15;;;;;;;0.98;0.45;;;21.20;42.90;;;;;;5085434;27;43393;-61
2021/12/02 07:57:43;;;;;;;0.50;0.50;;;21.20;42.90;;;;;;5084921;27;43487;-61
2021/12/02 08:00:13;;;;;;;0.50;0.45;;;21.20;43.00;;;;;;5068794;27;43431;-61
2021/12/02 08:02:46;;;;;;;0.35;0.35;;;21.20;43.00;;;;;;5084538;27;44089;-61
2021/12/02 08:05:14;;;;;;;0.40;0.40;;;21.20;42.90;;;;;;5084601;27;43482;-62
2021/12/02 08:07:44;;;;;;;0.60;0.55;;;21.20;42.90;;;;;;5063016;28;43525;-61
2021/12/02 08:10:14;;;;;;;0.90;0.43;;;21.20;43.00;;;;;;5064537;28;43636;-61
2021/12/02 08:12:47;;;;;;;0.98;0.40;;;21.20;42.90;;;;;;5054976;28;45029;-61
2021/12/02 08:15:21;;;;;;;0.63;0.47;;;21.20;43.00;;;;;;5051385;28;43456;-62
2021/12/02 08:17:50;;;;;;;0.50;0.50;;;21.20;42.90;;;;;;5061598;28;43516;-61
2021/12/02 08:20:19;;;;;;;0.40;0.40;;;21.20;42.90;;;;;;5061536;28;43569;-61
2021/12/02 08:22:47;;;;;;;0.50;0.32;;;21.20;43.10;;;;;;5064628;28;44100;-61
2021/12/02 08:25:16;;;;;;;0.85;0.40;;;21.20;43.00;;;;;;5063876;28;43558;-62
2021/12/02 08:27:43;;;;;;;0.40;0.40;;;21.20;43.10;;;;;;5047905;28;43484;-62
2021/12/02 08:30:13;;;;;;;0.30;0.30;;;21.20;43.00;;;;;;5054881;28;43569;-61
2021/12/02 08:32:42;;;;;;;0.52;0.50;;;21.20;42.90;;;;;;5064252;28;44952;-61
2021/12/02 08:35:11;;;;;;;0.43;0.40;;;21.20;43.00;;;;;;5061144;28;44127;-61
2021/12/02 08:37:45;;;;;;;0.50;0.50;;;21.20;43.00;;;;;;5059114;28;43532;-61
2021/12/02 08:40:19;;;;;;;0.43;0.30;;;21.30;43.00;;;;;;5056657;28;43534;-62
2021/12/02 08:42:47;;;;;;;0.50;0.30;;;21.30;43.00;;;;;;5065306;28;45040;-63
2021/12/02 08:45:15;;;;;;;0.30;0.30;;;21.30;43.00;;;;;;5063683;28;44112;-62
2021/12/02 08:47:45;;;;;;;0.40;0.40;;;21.30;43.00;;;;;;5063997;28;43454;-61
2021/12/02 08:50:15;;;;;;;0.60;0.40;;;21.30;43.00;;;;;;5064113;28;43516;-61
2021/12/02 08:52:43;;;;;;;0.30;0.30;;;21.30;43.00;;;;;;5063297;28;44468;-62
2021/12/02 08:55:11;;;;;;;0.40;0.40;;;21.30;43.00;;;;;;5063901;28;43510;-60
2021/12/02 08:57:50;;;;;;;1.02;0.45;;;21.30;43.10;;;;;;5053889;28;43419;-62
2021/12/02 09:00:20;;;;;;;0.43;0.28;;;21.30;43.10;;;;;;5045122;28;43563;-62
2021/12/02 09:02:47;;;;;;;0.40;0.40;;;21.30;43.10;;;;;;5063557;28;44047;-61
2021/12/02 09:05:15;;;;;;;0.20;0.20;;;21.30;43.10;;;;;;5062127;28;43482;-61
2021/12/02 09:07:44;;;;;;;0.40;0.40;;;21.30;43.10;;;;;;5074262;27;44704;-61
2021/12/02 09:10:16;;;;;;;0.55;0.45;;;21.40;43.10;;;;;;5084084;27;43436;-61
2021/12/02 09:12:45;;;;;;;0.50;0.50;;;21.40;43.10;;;;;;5083906;27;45138;-62
2021/12/02 09:15:13;;;;;;;0.55;0.50;;;21.40;43.10;;;;;;5081605;27;43961;-61
2021/12/02 09:17:41;;;;;;;1.40;0.30;;;21.40;43.20;;;;;;5083609;27;43482;-61
2021/12/02 09:20:11;;;;;;;0.88;0.50;;;21.50;43.20;;;;;;5083291;27;43553;-63
2021/12/02 09:22:39;;;;;;;0.40;0.40;;;21.40;43.00;;;;;;5083015;27;45126;-63
2021/12/02 09:25:06;;;;;;;1.52;0.40;;;21.50;43.10;;;;;;5082644;27;43466;-63
2021/12/02 09:27:34;;;;;;;1.55;0.47;;;21.50;43.10;;;;;;5082455;27;44010;-61
2021/12/02 09:30:03;;;;;;;0.63;0.40;;;21.50;43.10;;;;;;5087036;27;43543;-64
2021/12/02 09:32:32;;;;;;;1.13;0.40;;;21.50;42.90;;;;;;5086229;27;44111;-62
2021/12/02 09:35:00;;;;;;;0.85;0.55;;;21.50;42.90;;;;;;5085545;27;43934;-62
2021/12/02 09:37:28;;;;;;;0.60;0.40;;;21.60;42.90;;;;;;5082441;27;43481;-62
2021/12/02 09:39:56;;;;;;;0.35;0.35;;;21.50;42.80;;;;;;5073904;27;43589;-61
2021/12/02 09:42:26;;;;;;;0.20;0.20;;;21.60;42.90;;;;;;5081071;27;44102;-62
2021/12/02 09:45:01;;;;;;;1.10;0.50;;;21.50;42.90;;;;;;5074591;27;43484;-63
2021/12/02 09:47:37;;;;;;;0.88;0.32;;;21.50;42.90;;;;;;5069960;27;44043;-62
2021/12/02 09:50:14;;;;;;;2.30;0.43;;;21.60;42.90;;;;;;5069977;27;43534;-62
2021/12/02 09:52:43;;;;;;;0.40;0.40;;;21.60;42.90;;;;;;5076839;27;44046;-63
2021/12/02 09:55:22;;;;;;;2.05;0.50;;;21.60;42.90;;;;;;5086699;27;43828;-61
2021/12/02 09:57:54;;;;;;;0.40;0.40;;;21.60;42.90;;;;;;5086943;27;43454;-63
2021/12/02 10:00:36;;;;;;;1.67;0.40;;;21.60;42.90;;;;;;5084304;27;43522;-61
2021/12/02 10:03:15;;;;;;;0.40;0.40;;;21.60;42.90;;;;;;5086673;27;44749;-61
2021/12/02 10:06:18;;;;;;;1.17;0.45;;;21.60;43.00;;;;;;5083174;27;43461;-62
2021/12/02 10:08:52;;;;;;;1.40;0.43;;;21.60;43.00;;;;;;5084218;27;44105;-63
2021/12/02 10:11:40;;;;;;;0.55;0.50;;;21.60;43.00;;;;;;5066223;28;43582;-62
2021/12/02 10:14:31;;;;;;;0.40;0.40;;;21.60;43.00;;;;;;5078759;27;44923;-61
2021/12/02 10:17:11;;;;;;;1.02;0.50;;;21.70;43.00;;;;;;5081846;27;43952;-62
2021/12/02 10:25:58;;;;;;;1.08;0.40;;;21.90;42.90;;;;;;5064876;27;44201;-63
2021/12/02 10:28:34;;;;;;;0.95;0.30;;;21.90;42.90;;;;;;5068777;27;43951;-61
2021/12/02 10:31:05;;;;;;;0.57;0.50;;;21.90;43.00;;;;;;5061491;27;43575;-62
2021/12/02 10:33:36;;;;;;;0.52;0.45;;;21.90;43.00;;;;;;5068911;27;43676;-61
2021/12/02 10:36:07;;;;;;;0.50;0.45;;;22.00;43.00;;;;;;5066039;27;45031;-62
2021/12/02 10:38:44;;;;;;;0.43;0.43;;;22.00;42.90;;;;;;5067370;27;44451;-63
2021/12/02 10:41:24;;;;;;;0.35;0.30;;;22.10;42.80;;;;;;5070481;27;44824;-62
2021/12/02 10:44:10;;;;;;;0.93;0.50;;;22.10;42.70;;;;;;5053816;28;43702;-61
2021/12/02 10:46:55;;;;;;;1.60;0.40;;;22.10;42.80;;;;;;5063341;27;44667;-62
2021/12/02 10:49:45;;;;;;;1.83;0.70;;;22.10;42.70;;;;;;5068278;27;43598;-62
2021/12/02 10:52:16;;;;;;;0.50;0.50;;;22.10;42.70;;;;;;5070836;27;43579;-62
2021/12/02 10:54:48;;;;;;;0.50;0.50;;;22.10;42.80;;;;;;5071347;27;44095;-62
2021/12/02 10:57:21;;;;;;;0.60;0.50;;;22.20;42.70;;;;;;5066726;27;44106;-63
2021/12/02 10:59:50;;;;;;;0.55;0.55;;;22.20;42.80;;;;;;5065432;27;43560;-62
2021/12/02 11:02:26;;;;;;;0.88;0.50;;;22.20;42.80;;;;;;5067296;27;44978;-62
2021/12/02 11:05:01;;;;;;;1.25;0.50;;;22.20;42.70;;;;;;5049941;27;43746;-60
2021/12/02 11:07:41;;;;;;;0.73;0.50;;;22.20;42.70;;;;;;5064157;27;43781;-61
2021/12/02 11:10:14;;;;;;;0.20;0.20;;;22.20;42.80;;;;;;5036423;27;44503;-62
2021/12/02 11:12:48;;;;;;;0.73;0.55;;;22.20;42.80;;;;;;5075272;27;43585;-60
2021/12/02 11:15:22;;;;;;;0.52;0.30;;;22.10;42.80;;;;;;5056282;27;43739;-62
2021/12/02 11:17:57;;;;;;;0.55;0.45;;;22.10;43.00;;;;;;5073598;27;44197;-62
2021/12/02 11:20:37;;;;;;;0.65;0.40;;;22.10;43.00;;;;;;5042346;27;43627;-61
2021/12/02 11:23:36;;;;;;;0.40;0.40;;;22.20;43.00;;;;;;5071528;27;43546;-62
2021/12/02 11:26:08;;;;;;;0.75;0.30;;;22.20;43.00;;;;;;5066210;27;43641;-61
2021/12/02 11:28:39;;;;;;;0.80;0.45;;;22.20;43.00;;;;;;5067401;27;44072;-61
2021/12/02 11:31:10;;;;;;;0.30;0.30;;;22.20;42.90;;;;;;5060367;27;43962;-61
2021/12/02 11:33:39;;;;;;;0.88;0.40;;;22.20;42.90;;;;;;5071003;27;43931;-60
2021/12/02 11:36:22;;;;;;;0.82;0.57;;;22.30;42.90;;;;;;5047494;27;43678;-62
2021/12/02 11:38:52;;;;;;;1.35;0.50;;;22.30;43.00;;;;;;5054069;28;43925;-62
2021/12/02 11:41:19;;;;;;;0.60;0.40;;;22.40;43.00;;;;;;5070515;27;43954;-61
2021/12/02 11:43:48;;;;;;;1.02;0.45;;;22.40;42.90;;;;;;5066909;27;43571;-60
2021/12/02 11:46:16;;;;;;;0.80;0.47;;;22.50;42.80;;;;;;5064986;27;44964;-60
2021/12/02 11:48:44;;;;;;;0.60;0.30;;;22.50;42.80;;;;;;5068156;27;44680;-61
2021/12/02 11:51:16;;;;;;;0.60;0.50;;;22.50;42.80;;;;;;5066973;27;43557;-62
2021/12/02 11:53:44;;;;;;;0.93;0.50;;;22.40;42.80;;;;;;5063459;27;43692;-63
2021/12/02 11:56:18;;;;;;;0.63;0.50;;;22.50;42.90;;;;;;5067650;27;43656;-61
2021/12/02 11:58:46;;;;;;;1.65;0.50;;;22.40;42.80;;;;;;5067442;27;43822;-62
2021/12/02 12:01:20;;;;;;;0.63;0.43;;;22.40;42.90;;;;;;5068794;27;44483;-61
2021/12/02 12:03:53;;;;;;;0.63;0.30;;;22.40;43.00;;;;;;5066333;27;44845;-62
2021/12/02 12:06:32;;;;;;;0.52;0.50;;;22.40;43.00;;;;;;5066803;27;43684;-60
2021/12/02 12:09:04;;;;;;;0.63;0.52;;;22.40;43.00;;;;;;5073376;27;45056;-62
2021/12/02 12:11:33;;;;;;;0.30;0.30;;;22.40;43.00;;;;;;5068735;27;44301;-60
2021/12/02 12:14:06;;;;;;;0.30;0.30;;;22.40;43.00;;;;;;5069228;27;43583;-61
2021/12/02 12:16:41;;;;;;;0.50;0.32;;;22.50;43.10;;;;;;5057610;28;44204;-62
2021/12/02 12:19:21;;;;;;;0.40;0.40;;;22.50;42.90;;;;;;5062194;27;44092;-63
2021/12/02 12:22:02;;;;;;;0.73;0.40;;;22.60;43.70;;;;;;5069166;27;43857;-63
2021/12/02 12:24:48;;;;;;;0.80;0.45;;;22.60;43.60;;;;;;5068687;27;43560;-62
2021/12/02 12:27:19;;;;;;;0.88;0.38;;;22.60;42.90;;;;;;5067493;27;43637;-63
2021/12/02 12:37:49;;;;;;;0.65;0.35;;;22.80;42.70;;;;;;5065275;27;44718;-63
2021/12/02 12:40:40;;;;;;;0.50;0.50;;;22.80;42.70;;;;;;5065387;27;43896;-61
2021/12/02 12:43:07;;;;;;;0.70;0.55;;;22.80;42.60;;;;;;5063385;27;43578;-62
2021/12/02 12:45:41;;;;;;;0.60;0.30;;;22.80;42.50;;;;;;5066919;27;43883;-63
2021/12/02 12:48:18;;;;;;;1.17;0.45;;;22.90;42.60;;;;;;5059211;27;43644;-62
2021/12/02 12:50:47;;;;;;;1.25;0.30;;;22.90;42.50;;;;;;5063692;27;44042;-62
2021/12/02 12:53:17;;;;;;;0.35;0.32;;;22.90;42.50;;;;;;5065943;27;44050;-63
2021/12/02 12:55:55;;;;;;;;;;;22.90;42.50;;;;;;5063072;27;44174;-62
2021/12/02 12:58:27;;;;;;;0.30;0.30;;;22.90;42.50;;;;;;5068212;27;43689;-62
2021/12/02 13:01:02;;;;;;;1.20;0.30;;;22.90;42.40;;;;;;5066036;27;44262;-62
2021/12/02 13:03:45;;;;;;;0.70;0.50;;;23.00;42.40;;;;;;5064466;27;43689;-62
2021/12/02 13:06:22;;;;;;;0.68;0.40;;;23.00;42.30;;;;;;5062096;27;43567;-62
2021/12/02 13:09:03;;;;;;;0.38;0.30;;;23.00;42.40;;;;;;5067422;27;43658;-62
2021/12/02 13:11:32;;;;;;;;;;;23.00;42.40;;;;;;5066613;27;44864;-63
2021/12/02 13:14:02;;;;;;;0.45;0.20;;;22.90;42.30;;;;;;5069214;27;43568;-61
2021/12/02 13:16:29;;;;;;;0.65;0.30;;;22.90;42.40;;;;;;5065747;27;43580;-61
2021/12/02 13:19:19;;;;;;;0.50;0.35;;;22.90;42.40;;;;;;5066245;27;43610;-62
2021/12/02 13:21:57;;;;;;;0.73;0.43;;;23.00;42.40;;;;;;5063904;27;44575;-62
2021/12/02 13:24:35;;;;;;;0.63;0.40;;;23.00;42.30;;;;;;5066212;27;44168;-63
2021/12/02 13:27:06;;;;;;;1.17;0.35;;;23.00;42.30;;;;;;5066125;27;43614;-62
2021/12/02 13:29:34;;;;;;;;;;;22.90;42.30;;;;;;5066756;27;43585;-62
2021/12/02 13:32:09;;;;;;;1.35;0.38;;;22.90;42.30;;;;;;5059404;27;45029;-62
2021/12/02 13:34:37;;;;;;;1.30;0.30;;;23.00;42.40;;;;;;5063677;27;44830;-61
2021/12/02 13:37:10;;;;;;;1.35;0.40;;;23.00;42.40;;;;;;5067681;27;43593;-62
2021/12/02 13:39:43;;;;;;;0.90;0.30;;;23.00;42.30;;;;;;5064364;27;44930;-62
2021/12/02 13:42:15;;;;;;;1.52;0.50;;;23.00;42.30;;;;;;5067214;27;43922;-64
2021/12/02 13:44:53;;;;;;;2.10;0.47;;;23.00;42.50;;;;;;5054457;28;44112;-62
2021/12/02 13:47:32;;;;;;;1.85;0.57;;;23.00;42.40;;;;;;5065970;27;43708;-62
2021/12/02 13:50:03;;;;;;;1.73;0.60;;;23.00;42.30;;;;;;5068390;27;43694;-61
2021/12/02 13:55:24;;;;;;;1.10;0.30;;;23.10;42.20;;;;;;5050062;28;43591;-63